F/V Carmalia — FMFK — position and weather

sailwx.info

Track history (hours):
 
Tides and Currents Weather Stations Pressure Air Temp Water Temp Dewpoint Dewpoint Depression Visibility Wind Speed Wind Dir Waves Ship Positions

F/V Carmalia

Last reported at 2015-Aug-02 13:04 UTC. Time now 2015-Aug-03 21:20 UTC.
Position N 45°12' W 004°28'.

Length 17 m.

Type: Fishing. MMSI: 228222900.

Date/timePositionNaut miles runAvg speedWind from/ knotsBaromVisibWave heightAir tempDewpointWater temp
2015-Aug-02 13:04N 45°12' W 004°28'7 0.5
2015-Aug-01 23:18N 45°09' W 004°19'  
2015-Jul-29 20:08N 47°13' W 003°34'4 6.9
2015-Jul-29 19:33N 47°17' W 003°32'7 6.9
2015-Jul-29 18:33N 47°23' W 003°29'7 6.9
2015-Jul-29 17:33N 47°30' W 003°27'7 7.0
2015-Jul-29 16:33N 47°37' W 003°24'7 7.2
2015-Jul-29 15:33N 47°44' W 003°22'0 0.0
2015-Jul-29 14:33N 47°44' W 003°22'0 0.0
2015-Jul-29 13:33N 47°44' W 003°22'0 0.1
2015-Jul-29 12:33N 47°44' W 003°22'0 0.0
2015-Jul-29 09:20N 47°44' W 003°22'0 0.0
2015-Jul-29 08:33N 47°44' W 003°22'0 0.0
2015-Jul-28 14:12N 47°44' W 003°22'0 0.0
2015-Jul-27 00:33N 47°44' W 003°22'0 0.0
2015-Jul-26 23:33N 47°44' W 003°22'0 0.0
2015-Jul-26 22:33N 47°44' W 003°22'0 0.0
2015-Jul-26 21:33N 47°44' W 003°22'0 0.0
2015-Jul-26 20:33N 47°44' W 003°22'0 0.0
2015-Jul-26 19:33N 47°44' W 003°22'2 2.4
2015-Jul-26 18:33N 47°41' W 003°22'10 9.7
2015-Jul-26 17:33N 47°32' W 003°26'9 9.2
2015-Jul-26 16:33N 47°23' W 003°30'9 9.1
2015-Jul-26 15:33N 47°14' W 003°34'  
Track history (hours):
 
Tides and Currents Weather Stations Pressure Air Temp Water Temp Dewpoint Dewpoint Depression Visibility Wind Speed Wind Dir Waves Ship Positions

F/V Carmalia

Last reported at 2015-Aug-02 13:04 UTC. Time now 2015-Aug-03 21:20 UTC.
Position N 45°12' W 004°28'.

Length 17 m.

Type: Fishing. MMSI: 228222900.

Date/timePositionNaut miles runAvg speedWind from/ knotsBaromVisibWave heightAir tempDewpointWater temp
2015-Aug-02 13:04N 45°12' W 004°28'7 0.5
2015-Aug-01 23:18N 45°09' W 004°19'  
2015-Jul-29 20:08N 47°13' W 003°34'4 6.9
2015-Jul-29 19:33N 47°17' W 003°32'7 6.9
2015-Jul-29 18:33N 47°23' W 003°29'7 6.9
2015-Jul-29 17:33N 47°30' W 003°27'7 7.0
2015-Jul-29 16:33N 47°37' W 003°24'7 7.2
2015-Jul-29 15:33N 47°44' W 003°22'0 0.0
2015-Jul-29 14:33N 47°44' W 003°22'0 0.0
2015-Jul-29 13:33N 47°44' W 003°22'0 0.1
2015-Jul-29 12:33N 47°44' W 003°22'0 0.0
2015-Jul-29 09:20N 47°44' W 003°22'0 0.0
2015-Jul-29 08:33N 47°44' W 003°22'0 0.0
2015-Jul-28 14:12N 47°44' W 003°22'0 0.0
2015-Jul-27 00:33N 47°44' W 003°22'0 0.0
2015-Jul-26 23:33N 47°44' W 003°22'0 0.0
2015-Jul-26 22:33N 47°44' W 003°22'0 0.0
2015-Jul-26 21:33N 47°44' W 003°22'0 0.0
2015-Jul-26 20:33N 47°44' W 003°22'0 0.0
2015-Jul-26 19:33N 47°44' W 003°22'2 2.4
2015-Jul-26 18:33N 47°41' W 003°22'10 9.7
2015-Jul-26 17:33N 47°32' W 003°26'9 9.2
2015-Jul-26 16:33N 47°23' W 003°30'9 9.1
2015-Jul-26 15:33N 47°14' W 003°34'  

Dump ship's entire track history